X  Cerrar Datos meteorológicos de aviación METAR     EHAM Amsterdam Airport Schiphol
Temperatura
63°F Temperatura
55°F Punto de rocío
77% Humedad



Viento
2 MPH
3 KM/H
1 M/S
2 NUDO



Calma
N
Condiciones actuales

Claro Claro
Presión 1017.95 (hPa) - 30.06 (inHg)
Visibilidad 6 (milla) - 9.7 (km)
Aeropuerto
Código de aeropuerto EHAM

localidad: Amsterdam Airport Schiphol
Distancia: 40 (mi)

Metar:
EHAM 240725Z VRB02KT CAVOK 17/13 Q1018 NOSIG

Hora: 24-05-2024 09:25 CEST